createdAt,value
2023-03-13T00:01:19.520Z,6.85
2023-03-13T00:03:48.008Z,6.72
2023-03-13T00:06:16.969Z,8.50
2023-03-13T00:08:46.538Z,8.20
2023-03-13T00:11:16.422Z,6.03
2023-03-13T00:13:45.572Z,4.43
2023-03-13T00:16:15.774Z,8.15
2023-03-13T00:18:46.824Z,4.78
2023-03-13T00:23:43.483Z,6.43
2023-03-13T00:26:14.855Z,4.22
2023-03-13T00:28:45.815Z,6.75
2023-03-13T00:33:44.731Z,6.68
2023-03-13T00:36:15.191Z,6.43
2023-03-13T00:38:43.795Z,7.90
2023-03-13T00:41:14.891Z,6.85
2023-03-13T00:43:44.369Z,6.30
2023-03-13T00:46:14.161Z,6.57
2023-03-13T00:48:42.467Z,5.15
2023-03-13T00:51:11.825Z,6.47
2023-03-13T00:53:40.185Z,5.30
2023-03-13T00:56:10.383Z,5.75
2023-03-13T00:58:42.072Z,4.35
2023-03-13T01:01:11.831Z,6.80
2023-03-13T01:03:40.944Z,4.97
2023-03-13T01:06:11.386Z,4.47
2023-03-13T01:08:39.861Z,4.03
2023-03-13T01:11:10.051Z,5.03
2023-03-13T01:13:40.249Z,4.93
2023-03-13T01:16:11.134Z,4.85
2023-03-13T01:18:42.056Z,8.27
2023-03-13T01:21:10.957Z,5.25
2023-03-13T01:23:39.401Z,6.82
2023-03-13T01:26:09.379Z,4.18
2023-03-13T01:28:39.313Z,6.55
2023-03-13T01:31:14.681Z,6.50
2023-03-13T01:33:43.466Z,5.07
2023-03-13T01:36:12.181Z,4.90
2023-03-13T01:38:40.989Z,6.82
2023-03-13T01:41:12.732Z,6.30
2023-03-13T01:43:42.440Z,5.10
2023-03-13T01:46:16.265Z,6.07
2023-03-13T01:48:51.201Z,6.65
2023-03-13T01:51:22.866Z,5.43
2023-03-13T01:56:24.306Z,4.15
2023-03-13T01:58:54.596Z,5.93
2023-03-13T02:01:24.546Z,4.82
2023-03-13T02:03:53.099Z,3.80
2023-03-13T02:06:21.695Z,4.72
2023-03-13T02:08:54.192Z,5.25
2023-03-13T02:11:31.152Z,3.38
2023-03-13T02:14:01.995Z,4.47
2023-03-13T02:16:30.604Z,3.95
2023-03-13T02:18:58.962Z,4.72
2023-03-13T02:21:38.535Z,3.45
2023-03-13T02:24:14.474Z,4.30
2023-03-13T02:26:44.465Z,3.92
2023-03-13T02:29:18.578Z,4.25
2023-03-13T02:31:48.547Z,4.47
2023-03-13T02:34:20.494Z,3.97
2023-03-13T02:36:49.409Z,6.03
2023-03-13T02:39:20.012Z,4.30
2023-03-13T02:41:50.348Z,3.38
2023-03-13T02:44:18.719Z,4.15
2023-03-13T02:46:50.519Z,5.40
2023-03-13T02:49:23.352Z,4.20
2023-03-13T02:51:52.450Z,4.47
2023-03-13T02:54:22.978Z,4.30
2023-03-13T02:56:56.726Z,4.53
2023-03-13T02:59:25.761Z,4.28
2023-03-13T03:01:54.428Z,5.88
2023-03-13T03:04:23.565Z,4.45
2023-03-13T03:06:52.814Z,5.18
2023-03-13T03:09:21.860Z,4.10
2023-03-13T03:11:50.420Z,5.95
2023-03-13T03:14:20.157Z,4.70
2023-03-13T03:16:49.025Z,4.85
2023-03-13T03:19:17.375Z,5.20
2023-03-13T03:21:46.538Z,5.10
2023-03-13T03:24:14.758Z,5.90
2023-03-13T03:26:43.414Z,5.88
2023-03-13T03:29:11.970Z,4.72
2023-03-13T03:31:42.216Z,3.58
2023-03-13T03:34:10.571Z,6.22
2023-03-13T03:36:39.206Z,5.13
2023-03-13T03:39:09.949Z,5.55
2023-03-13T03:41:38.580Z,4.43
2023-03-13T03:44:07.365Z,5.00
2023-03-13T03:46:35.961Z,5.60
2023-03-13T03:49:05.628Z,5.40
2023-03-13T03:51:34.309Z,5.60
2023-03-13T03:54:02.598Z,5.25
2023-03-13T03:56:31.254Z,7.93
2023-03-13T03:58:59.537Z,6.72
2023-03-13T04:01:28.194Z,5.55
2023-03-13T04:03:56.504Z,6.53
2023-03-13T04:06:26.520Z,6.85
2023-03-13T04:08:55.646Z,6.55
2023-03-13T04:11:24.277Z,6.03
2023-03-13T04:13:52.778Z,7.55
2023-03-13T04:16:21.309Z,5.72
2023-03-13T04:18:49.664Z,5.43
2023-03-13T04:21:18.220Z,7.70
2023-03-13T04:23:48.046Z,7.68
2023-03-13T04:26:16.680Z,8.10
2023-03-13T04:28:45.049Z,7.85
2023-03-13T04:31:13.642Z,6.13
2023-03-13T04:33:42.170Z,6.72
2023-03-13T04:36:11.211Z,7.93
2023-03-13T04:38:39.678Z,5.82
2023-03-13T04:41:09.685Z,8.13
2023-03-13T04:43:37.988Z,7.43
2023-03-13T04:46:06.661Z,7.63
2023-03-13T04:48:35.243Z,7.18
2023-03-13T04:51:03.934Z,7.75
2023-03-13T04:53:32.264Z,8.35
2023-03-13T04:56:01.048Z,7.70
2023-03-13T04:58:30.895Z,8.38
2023-03-13T05:00:59.472Z,6.95
2023-03-13T05:03:27.805Z,8.52
2023-03-13T05:05:56.437Z,8.18
2023-03-13T05:08:24.944Z,11.07
2023-03-13T05:10:53.509Z,7.32
2023-03-13T05:13:21.905Z,8.98
2023-03-13T05:15:51.971Z,7.95
2023-03-13T05:18:20.356Z,11.75
2023-03-13T05:20:49.163Z,8.10
2023-03-13T05:23:17.543Z,10.93
2023-03-13T05:25:46.224Z,7.55
2023-03-13T05:28:14.836Z,8.10
2023-03-13T05:30:43.496Z,8.75
2023-03-13T05:33:13.347Z,10.63
2023-03-13T05:35:41.994Z,11.50
2023-03-13T05:38:10.455Z,11.40
2023-03-13T05:40:38.955Z,12.40
2023-03-13T05:43:07.454Z,11.40
2023-03-13T05:45:36.046Z,15.30
2023-03-13T05:48:04.209Z,13.07
2023-03-13T05:50:34.220Z,13.50
2023-03-13T05:53:02.571Z,16.50
2023-03-13T05:55:31.106Z,12.35
2023-03-13T05:57:59.378Z,16.75
2023-03-13T06:00:28.273Z,11.45
2023-03-13T06:02:56.638Z,9.00
2023-03-13T06:05:25.227Z,11.13
2023-03-13T06:07:55.040Z,9.93
2023-03-13T06:10:26.123Z,10.88
2023-03-13T06:12:55.071Z,9.50
2023-03-13T06:15:24.153Z,11.00
2023-03-13T06:17:52.531Z,11.50
2023-03-13T06:20:22.388Z,11.63
2023-03-13T06:22:50.737Z,8.50
2023-03-13T06:25:20.703Z,9.98
2023-03-13T06:27:49.032Z,11.27
2023-03-13T06:30:17.857Z,11.30
2023-03-13T06:32:51.577Z,9.73
2023-03-13T06:35:20.134Z,13.95
2023-03-13T06:37:48.564Z,11.13
2023-03-13T06:40:17.332Z,10.48
2023-03-13T06:42:47.143Z,10.15
2023-03-13T06:45:15.989Z,9.98
2023-03-13T06:47:44.421Z,9.52
2023-03-13T06:50:13.125Z,10.48
2023-03-13T06:52:44.108Z,10.70
2023-03-13T06:57:41.409Z,8.52
2023-03-13T07:00:13.461Z,10.60
2023-03-13T07:02:42.064Z,7.53
2023-03-13T07:05:14.638Z,12.75
2023-03-13T07:07:43.319Z,8.30
2023-03-13T07:10:13.081Z,9.95
2023-03-13T07:12:41.430Z,9.55
2023-03-13T07:15:12.461Z,8.02
2023-03-13T07:17:40.787Z,9.43
2023-03-13T07:20:11.825Z,10.13
2023-03-13T07:22:40.326Z,10.30
2023-03-13T07:25:10.847Z,6.95
2023-03-13T07:27:39.214Z,8.63
2023-03-13T07:30:08.822Z,7.78
2023-03-13T07:32:38.579Z,8.63
2023-03-13T07:35:07.976Z,9.13
2023-03-13T07:37:36.292Z,10.07
2023-03-13T07:40:05.777Z,9.30
2023-03-13T07:42:34.377Z,16.02
2023-03-13T07:45:03.030Z,14.10
2023-03-13T07:47:31.433Z,10.10
2023-03-13T07:50:01.477Z,7.63
2023-03-13T07:52:29.853Z,8.32
2023-03-13T07:54:58.538Z,7.95
2023-03-13T07:57:27.219Z,6.38
2023-03-13T07:59:55.906Z,8.02
2023-03-13T08:02:24.355Z,9.20
2023-03-13T08:04:54.176Z,7.82
2023-03-13T08:07:23.886Z,7.55
2023-03-13T08:09:52.496Z,12.10
2023-03-13T08:12:20.765Z,13.50
2023-03-13T08:14:49.508Z,12.80
2023-03-13T08:17:17.947Z,8.52
2023-03-13T08:19:46.558Z,9.02
2023-03-13T08:22:14.997Z,10.05
2023-03-13T08:24:45.017Z,8.00
2023-03-13T08:27:13.251Z,7.93
2023-03-13T08:29:44.375Z,9.30
2023-03-13T08:32:15.694Z,7.68
2023-03-13T08:34:44.373Z,7.15
2023-03-13T08:37:16.695Z,10.15
2023-03-13T08:39:48.672Z,8.75
2023-03-13T08:42:17.008Z,7.53
2023-03-13T08:44:46.329Z,8.60
2023-03-13T08:47:14.657Z,8.68
2023-03-13T08:49:43.609Z,6.70
2023-03-13T08:52:12.153Z,8.43
2023-03-13T08:54:40.984Z,8.00
2023-03-13T08:57:10.613Z,6.97
2023-03-13T08:59:39.146Z,7.90
2023-03-13T09:02:07.601Z,7.30
2023-03-13T09:04:36.295Z,7.32
2023-03-13T09:07:04.660Z,8.75
2023-03-13T09:09:33.301Z,8.35
2023-03-13T09:12:01.579Z,9.00
2023-03-13T09:14:31.529Z,8.63
2023-03-13T09:16:59.756Z,7.85
2023-03-13T09:19:28.316Z,10.45
2023-03-13T09:21:56.553Z,7.35
2023-03-13T09:24:25.540Z,7.07
2023-03-13T09:27:01.041Z,11.30
2023-03-13T09:29:33.433Z,7.95
2023-03-13T09:32:02.147Z,11.07
2023-03-13T09:34:32.118Z,8.88
2023-03-13T09:37:00.600Z,6.22
2023-03-13T09:39:29.439Z,7.70
2023-03-13T09:42:06.794Z,11.35
2023-03-13T09:44:41.859Z,14.40
2023-03-13T09:47:13.794Z,6.85
2023-03-13T09:49:44.335Z,5.60
2023-03-13T09:52:17.928Z,6.53
2023-03-13T09:54:50.585Z,10.55
2023-03-13T09:57:24.068Z,7.50
2023-03-13T09:59:57.667Z,6.43
2023-03-13T10:02:32.923Z,10.32
2023-03-13T10:05:07.586Z,9.20
2023-03-13T10:07:35.919Z,4.55
2023-03-13T10:10:08.113Z,5.68
2023-03-13T10:12:40.424Z,6.72
2023-03-13T10:15:34.339Z,5.88
2023-03-13T10:18:13.664Z,6.25
2023-03-13T10:20:42.433Z,7.95
2023-03-13T10:23:16.253Z,5.43
2023-03-13T10:25:44.758Z,5.55
2023-03-13T10:28:16.930Z,4.22
2023-03-13T10:30:49.373Z,4.50
2023-03-13T10:33:25.645Z,7.13
2023-03-13T10:36:06.563Z,8.63
2023-03-13T10:38:37.019Z,5.68
2023-03-13T10:41:10.586Z,5.20
2023-03-13T10:43:51.852Z,6.10
2023-03-13T10:46:29.219Z,5.60
2023-03-13T10:48:58.615Z,8.85
2023-03-13T10:51:39.710Z,5.80
2023-03-13T10:54:26.015Z,9.02
2023-03-13T10:57:14.204Z,5.35
2023-03-13T10:59:44.936Z,9.45
2023-03-13T11:02:36.964Z,8.63
2023-03-13T11:05:33.724Z,5.82
2023-03-13T11:08:13.739Z,11.05
2023-03-13T11:10:54.817Z,7.03
2023-03-13T11:13:37.137Z,7.55
2023-03-13T11:16:24.081Z,7.60
2023-03-13T11:19:12.037Z,8.63
2023-03-13T11:21:46.153Z,11.55
2023-03-13T11:24:17.159Z,8.07
2023-03-13T11:27:01.985Z,6.57
2023-03-13T11:29:38.820Z,9.30
2023-03-13T11:32:15.730Z,6.78
2023-03-13T11:34:48.832Z,7.88
2023-03-13T11:37:19.613Z,7.85
2023-03-13T11:39:55.024Z,6.05
2023-03-13T11:42:55.957Z,7.93
2023-03-13T11:45:46.417Z,7.78
2023-03-13T11:48:20.861Z,6.72
2023-03-13T11:50:53.870Z,6.75
2023-03-13T11:53:34.634Z,6.68
2023-03-13T11:56:10.487Z,6.15
2023-03-13T11:58:45.969Z,16.83
2023-03-13T12:01:16.589Z,7.75
2023-03-13T12:03:56.041Z,6.50
2023-03-13T12:06:31.876Z,6.55
2023-03-13T12:09:05.357Z,4.72
2023-03-13T12:11:35.450Z,6.15
2023-03-13T12:14:06.194Z,6.72
2023-03-13T12:16:42.580Z,5.28
2023-03-13T12:19:16.772Z,8.88
2023-03-13T12:21:50.630Z,5.75
2023-03-13T12:24:24.793Z,5.93
2023-03-13T12:26:56.965Z,4.05
2023-03-13T12:29:35.567Z,6.70
2023-03-13T12:32:06.317Z,5.95
2023-03-13T12:34:38.107Z,5.33
2023-03-13T12:37:12.702Z,7.15
2023-03-13T12:39:44.438Z,5.68
2023-03-13T12:42:22.658Z,6.00
2023-03-13T12:44:51.284Z,4.28
2023-03-13T12:47:28.044Z,7.05
2023-03-13T12:50:25.825Z,8.00
2023-03-13T12:53:22.641Z,6.22
2023-03-13T12:56:02.700Z,4.28
2023-03-13T12:58:41.251Z,4.57
2023-03-13T13:01:15.087Z,7.65
2023-03-13T13:03:52.652Z,6.25
2023-03-13T13:06:21.018Z,5.85
2023-03-13T13:09:09.857Z,5.53
2023-03-13T13:11:49.132Z,7.25
2023-03-13T13:15:00.071Z,8.82
2023-03-13T13:17:34.395Z,6.20
2023-03-13T13:20:32.057Z,7.70
2023-03-13T13:23:28.367Z,21.85
2023-03-13T13:26:48.537Z,8.30
2023-03-13T13:29:59.623Z,6.40
2023-03-13T13:32:48.419Z,5.47
2023-03-13T13:35:31.387Z,7.35
2023-03-13T13:38:23.574Z,7.38
2023-03-13T13:41:05.267Z,7.80
2023-03-13T13:43:35.054Z,5.95
2023-03-13T13:46:09.187Z,6.22
2023-03-13T13:48:39.992Z,6.38
2023-03-13T13:51:26.478Z,5.73
2023-03-13T13:53:57.224Z,9.00
2023-03-13T13:56:43.918Z,5.73
2023-03-13T13:59:37.469Z,6.40
2023-03-13T14:02:22.270Z,9.65
2023-03-13T14:04:54.306Z,5.32
2023-03-13T14:07:27.103Z,9.07
2023-03-13T14:10:03.171Z,6.80
2023-03-13T14:12:34.175Z,15.50
2023-03-13T14:15:19.339Z,6.18
2023-03-13T14:17:49.490Z,7.20
2023-03-13T14:20:32.671Z,5.70
2023-03-13T14:23:02.542Z,6.97
2023-03-13T14:25:43.898Z,9.45
2023-03-13T14:28:22.595Z,6.15
2023-03-13T14:30:52.837Z,7.32
2023-03-13T14:33:21.510Z,7.25
2023-03-13T14:35:50.807Z,7.93
2023-03-13T14:38:20.863Z,8.00
2023-03-13T14:40:49.861Z,6.45
2023-03-13T14:43:30.960Z,9.25
2023-03-13T14:46:00.094Z,7.88
2023-03-13T14:48:32.972Z,8.23
2023-03-13T14:51:15.697Z,7.13
2023-03-13T14:53:55.610Z,8.02
2023-03-13T14:56:32.687Z,23.90
2023-03-13T14:59:27.221Z,11.15
2023-03-13T15:02:00.843Z,29.77
2023-03-13T15:04:52.168Z,14.85
2023-03-13T15:07:22.991Z,10.95
2023-03-13T15:09:52.103Z,15.30
2023-03-13T15:12:22.554Z,74.00
2023-03-13T15:14:53.022Z,46.35
2023-03-13T15:17:22.621Z,20.02
2023-03-13T15:19:55.383Z,20.02
2023-03-13T15:22:29.846Z,11.15
2023-03-13T15:25:07.248Z,9.18
2023-03-13T15:27:36.608Z,9.77
2023-03-13T15:30:07.741Z,7.53
2023-03-13T15:32:38.539Z,8.65
2023-03-13T15:35:23.515Z,7.43
2023-03-13T15:37:52.308Z,8.75
2023-03-13T15:40:21.113Z,8.80
2023-03-13T15:42:49.694Z,7.65
2023-03-13T15:45:19.318Z,10.57
2023-03-13T15:47:48.265Z,10.68
2023-03-13T15:50:18.586Z,8.07
2023-03-13T15:52:47.084Z,6.32
2023-03-13T15:55:15.903Z,8.73
2023-03-13T15:57:47.319Z,7.50
2023-03-13T16:00:21.863Z,9.27
2023-03-13T16:02:50.950Z,9.90
2023-03-13T16:05:19.545Z,9.27
2023-03-13T16:07:48.156Z,9.25
2023-03-13T16:10:19.232Z,8.30
2023-03-13T16:15:16.413Z,8.13
2023-03-13T16:17:46.483Z,8.73
2023-03-13T16:20:17.488Z,7.85
2023-03-13T16:22:46.693Z,7.28
2023-03-13T16:25:15.692Z,6.80
2023-03-13T16:27:44.547Z,13.68
2023-03-13T16:30:19.141Z,18.95
2023-03-13T16:32:49.330Z,12.85
2023-03-13T16:35:17.845Z,11.88
2023-03-13T16:37:46.492Z,9.77
2023-03-13T16:40:19.702Z,10.85
2023-03-13T16:42:48.379Z,10.68
2023-03-13T16:45:16.956Z,8.00
2023-03-13T16:47:46.737Z,12.13
2023-03-13T16:50:24.703Z,7.70
2023-03-13T16:52:53.922Z,10.60
2023-03-13T16:55:28.385Z,11.07
2023-03-13T16:57:57.350Z,8.93
2023-03-13T17:00:27.191Z,50.50
2023-03-13T17:02:59.113Z,96.93
2023-03-13T17:05:29.288Z,27.27
2023-03-13T17:07:57.972Z,11.63
2023-03-13T17:10:28.466Z,21.55
2023-03-13T17:12:57.032Z,58.72
2023-03-13T17:15:26.625Z,40.13
2023-03-13T17:17:55.356Z,46.58
2023-03-13T17:20:25.321Z,29.80
2023-03-13T17:22:56.373Z,20.65
2023-03-13T17:25:24.892Z,17.10
2023-03-13T17:27:53.747Z,15.48
2023-03-13T17:30:25.394Z,16.38
2023-03-13T17:32:54.208Z,12.13
2023-03-13T17:35:23.175Z,10.30
2023-03-13T17:37:51.807Z,10.13
2023-03-13T17:40:23.947Z,23.10
2023-03-13T17:42:52.528Z,22.30
2023-03-13T17:45:20.930Z,19.48
2023-03-13T17:47:50.488Z,17.45
2023-03-13T17:50:20.810Z,18.38
2023-03-13T17:52:49.465Z,14.18
2023-03-13T17:55:18.467Z,15.05
2023-03-13T17:57:48.911Z,11.45
2023-03-13T18:00:26.729Z,11.68
2023-03-13T18:02:55.399Z,11.00
2023-03-13T18:05:25.569Z,10.00
2023-03-13T18:07:55.992Z,9.93
2023-03-13T18:10:25.484Z,10.90
2023-03-13T18:12:55.465Z,10.10
2023-03-13T18:15:25.097Z,11.00
2023-03-13T18:17:54.753Z,10.65
2023-03-13T18:20:26.142Z,9.57
2023-03-13T18:22:59.493Z,10.60
2023-03-13T18:25:28.133Z,10.75
2023-03-13T18:27:58.165Z,10.07
2023-03-13T18:30:27.292Z,10.68
2023-03-13T18:32:56.242Z,10.80
2023-03-13T18:35:24.550Z,9.98
2023-03-13T18:37:53.184Z,14.43
2023-03-13T18:40:24.590Z,12.48
2023-03-13T18:42:53.272Z,12.27
2023-03-13T18:45:24.687Z,12.73
2023-03-13T18:47:53.347Z,12.00
2023-03-13T18:50:26.346Z,14.65
2023-03-13T18:52:56.190Z,14.05
2023-03-13T18:55:25.373Z,14.45
2023-03-13T18:57:54.490Z,16.60
2023-03-13T19:00:26.157Z,14.02
2023-03-13T19:02:54.801Z,9.43
2023-03-13T19:05:23.583Z,16.77
2023-03-13T19:07:52.496Z,14.63
2023-03-13T19:10:24.296Z,9.55
2023-03-13T19:12:54.248Z,11.57
2023-03-13T19:15:26.988Z,10.55
2023-03-13T19:17:57.071Z,10.82
2023-03-13T19:20:25.608Z,12.90
2023-03-13T19:22:56.225Z,11.07
2023-03-13T19:25:24.807Z,19.58
2023-03-13T19:27:53.378Z,31.80
2023-03-13T19:30:24.305Z,15.95
2023-03-13T19:32:53.253Z,18.05
2023-03-13T19:35:22.309Z,34.13
2023-03-13T19:37:51.387Z,30.63
2023-03-13T19:40:21.468Z,22.75
2023-03-13T19:42:50.108Z,24.80
2023-03-13T19:45:20.558Z,13.10
2023-03-13T19:47:50.635Z,12.52
2023-03-13T19:50:20.878Z,15.68
2023-03-13T19:52:49.827Z,10.18
2023-03-13T19:55:18.261Z,14.20
2023-03-13T19:57:46.986Z,9.18
2023-03-13T20:00:21.035Z,10.65
2023-03-13T20:02:52.388Z,13.50
2023-03-13T20:05:20.803Z,8.38
2023-03-13T20:07:49.476Z,8.18
2023-03-13T20:10:17.888Z,9.52
2023-03-13T20:12:46.445Z,6.60
2023-03-13T20:15:14.785Z,9.38
2023-03-13T20:17:44.284Z,6.78
2023-03-13T20:20:14.566Z,6.93
2023-03-13T20:22:43.368Z,8.80
2023-03-13T20:25:11.861Z,15.10
2023-03-13T20:27:40.552Z,8.82
2023-03-13T20:30:10.251Z,9.73
2023-03-13T20:32:49.103Z,7.28
2023-03-13T20:35:26.980Z,8.10
2023-03-13T20:37:57.891Z,6.45
2023-03-13T20:40:26.536Z,5.57
2023-03-13T20:42:55.465Z,16.35
2023-03-13T20:45:24.065Z,6.88
2023-03-13T20:47:52.598Z,9.20
2023-03-13T20:50:21.111Z,9.07
2023-03-13T20:52:51.162Z,8.15
2023-03-13T20:55:19.521Z,15.82
2023-03-13T20:57:48.104Z,9.93
2023-03-13T21:00:16.930Z,9.02
2023-03-13T21:02:46.845Z,6.07
2023-03-13T21:05:15.189Z,9.73
2023-03-13T21:07:44.026Z,10.88
2023-03-13T21:10:13.956Z,10.32
2023-03-13T21:12:42.818Z,9.70
2023-03-13T21:15:12.495Z,11.68
2023-03-13T21:17:41.722Z,8.23
2023-03-13T21:20:11.989Z,12.27
2023-03-13T21:22:41.188Z,9.30
2023-03-13T21:25:11.229Z,9.00
2023-03-13T21:27:43.865Z,11.93
2023-03-13T21:30:14.031Z,13.10
2023-03-13T21:32:42.963Z,5.60
2023-03-13T21:35:12.020Z,8.15
2023-03-13T21:37:40.869Z,6.85
2023-03-13T21:40:10.824Z,8.77
2023-03-13T21:42:41.091Z,6.72
2023-03-13T21:45:10.931Z,4.63
2023-03-13T21:47:40.495Z,4.70
2023-03-13T21:50:11.131Z,7.78
2023-03-13T21:52:41.360Z,8.98
2023-03-13T21:55:12.152Z,7.07
2023-03-13T21:57:42.171Z,6.90
2023-03-13T22:00:14.072Z,6.70
2023-03-13T22:02:44.278Z,9.52
2023-03-13T22:05:12.834Z,7.38
2023-03-13T22:07:41.427Z,5.85
2023-03-13T22:10:10.774Z,7.75
2023-03-13T22:12:39.388Z,13.95
2023-03-13T22:15:10.735Z,9.85
2023-03-13T22:17:39.333Z,8.00
2023-03-13T22:20:10.100Z,10.88
2023-03-13T22:22:38.760Z,6.50
2023-03-13T22:25:07.685Z,5.22
2023-03-13T22:27:36.465Z,7.25
2023-03-13T22:30:05.171Z,6.40
2023-03-13T22:32:35.433Z,7.18
2023-03-13T22:35:04.209Z,11.07
2023-03-13T22:37:32.943Z,6.32
2023-03-13T22:40:01.155Z,8.07
2023-03-13T22:42:29.704Z,7.03
2023-03-13T22:44:58.278Z,14.10
2023-03-13T22:47:27.089Z,19.38
2023-03-13T22:49:59.982Z,8.80
2023-03-13T22:52:31.109Z,6.45
2023-03-13T22:54:59.612Z,8.40
2023-03-13T22:57:30.321Z,7.10
2023-03-13T23:00:00.320Z,8.05
2023-03-13T23:02:30.208Z,10.25
2023-03-13T23:05:01.317Z,8.13
2023-03-13T23:07:31.227Z,9.82
2023-03-13T23:09:59.831Z,10.45
2023-03-13T23:12:30.951Z,22.73
2023-03-13T23:15:00.660Z,11.40
2023-03-13T23:17:31.677Z,4.57
2023-03-13T23:20:01.640Z,6.00
2023-03-13T23:22:33.058Z,5.95
2023-03-13T23:25:01.450Z,5.85
2023-03-13T23:27:30.143Z,6.15
2023-03-13T23:29:58.499Z,6.05
2023-03-13T23:32:27.113Z,6.22
2023-03-13T23:34:55.688Z,6.47
2023-03-13T23:37:25.693Z,8.02
2023-03-13T23:39:53.933Z,10.10
2023-03-13T23:42:22.685Z,8.65
2023-03-13T23:44:50.859Z,5.70
2023-03-13T23:47:19.579Z,5.07
2023-03-13T23:49:48.015Z,4.85
2023-03-13T23:52:16.572Z,4.35
2023-03-13T23:54:46.126Z,5.68
2023-03-13T23:57:14.702Z,3.35
2023-03-13T23:59:43.225Z,6.65
